sensor_id;sensor_type;location;lat;lon;timestamp;temperature;humidity
17092;DHT22;8661;45.700;4.880;2023-02-28T00:01:36;1.00;94.20
17092;DHT22;8661;45.700;4.880;2023-02-28T00:04:05;1.00;94.20
17092;DHT22;8661;45.700;4.880;2023-02-28T00:06:34;1.00;94.10
17092;DHT22;8661;45.700;4.880;2023-02-28T00:09:01;1.00;94.20
17092;DHT22;8661;45.700;4.880;2023-02-28T00:11:29;1.00;94.20
17092;DHT22;8661;45.700;4.880;2023-02-28T00:13:56;1.00;94.30
17092;DHT22;8661;45.700;4.880;2023-02-28T00:16:26;1.00;94.40
17092;DHT22;8661;45.700;4.880;2023-02-28T00:18:55;1.00;94.40
17092;DHT22;8661;45.700;4.880;2023-02-28T00:21:28;1.00;94.50
17092;DHT22;8661;45.700;4.880;2023-02-28T00:23:55;1.00;94.50
17092;DHT22;8661;45.700;4.880;2023-02-28T00:26:22;0.90;94.50
17092;DHT22;8661;45.700;4.880;2023-02-28T00:28:57;0.90;94.50
17092;DHT22;8661;45.700;4.880;2023-02-28T00:31:27;0.90;94.90
17092;DHT22;8661;45.700;4.880;2023-02-28T00:33:59;0.80;94.50
17092;DHT22;8661;45.700;4.880;2023-02-28T00:36:28;0.90;94.70
17092;DHT22;8661;45.700;4.880;2023-02-28T00:38:55;0.80;94.70
17092;DHT22;8661;45.700;4.880;2023-02-28T00:41:26;0.80;94.80
17092;DHT22;8661;45.700;4.880;2023-02-28T00:43:56;0.70;94.90
17092;DHT22;8661;45.700;4.880;2023-02-28T00:46:25;0.70;94.90
17092;DHT22;8661;45.700;4.880;2023-02-28T00:48:52;0.70;95.00
17092;DHT22;8661;45.700;4.880;2023-02-28T00:51:22;0.70;95.00
17092;DHT22;8661;45.700;4.880;2023-02-28T00:53:56;0.70;94.90
17092;DHT22;8661;45.700;4.880;2023-02-28T00:56:26;0.80;94.90
17092;DHT22;8661;45.700;4.880;2023-02-28T00:58:55;0.80;94.90
17092;DHT22;8661;45.700;4.880;2023-02-28T01:01:22;0.80;94.90
17092;DHT22;8661;45.700;4.880;2023-02-28T01:03:51;0.80;94.90
17092;DHT22;8661;45.700;4.880;2023-02-28T01:06:20;0.70;94.90
17092;DHT22;8661;45.700;4.880;2023-02-28T01:08:47;0.80;94.90
17092;DHT22;8661;45.700;4.880;2023-02-28T01:11:17;0.90;94.90
17092;DHT22;8661;45.700;4.880;2023-02-28T01:13:45;0.90;94.80
17092;DHT22;8661;45.700;4.880;2023-02-28T01:16:13;0.90;94.80
17092;DHT22;8661;45.700;4.880;2023-02-28T01:18:40;0.90;94.80
17092;DHT22;8661;45.700;4.880;2023-02-28T01:21:11;0.90;94.70
17092;DHT22;8661;45.700;4.880;2023-02-28T01:23:39;0.90;94.80
17092;DHT22;8661;45.700;4.880;2023-02-28T01:26:06;0.90;94.90
17092;DHT22;8661;45.700;4.880;2023-02-28T01:28:35;0.80;94.90
17092;DHT22;8661;45.700;4.880;2023-02-28T01:31:02;0.80;94.90
17092;DHT22;8661;45.700;4.880;2023-02-28T01:33:29;0.80;94.90
17092;DHT22;8661;45.700;4.880;2023-02-28T01:36:00;0.90;95.00
17092;DHT22;8661;45.700;4.880;2023-02-28T01:38:27;0.80;95.00
17092;DHT22;8661;45.700;4.880;2023-02-28T01:40:57;0.90;95.00
17092;DHT22;8661;45.700;4.880;2023-02-28T01:43:29;0.90;95.00
17092;DHT22;8661;45.700;4.880;2023-02-28T01:45:58;0.90;94.90
17092;DHT22;8661;45.700;4.880;2023-02-28T01:48:27;0.90;95.00
17092;DHT22;8661;45.700;4.880;2023-02-28T01:50:57;0.90;94.90
17092;DHT22;8661;45.700;4.880;2023-02-28T01:53:31;0.90;95.00
17092;DHT22;8661;45.700;4.880;2023-02-28T01:55:59;0.80;95.10
17092;DHT22;8661;45.700;4.880;2023-02-28T01:58:30;0.80;95.50
17092;DHT22;8661;45.700;4.880;2023-02-28T02:00:58;0.70;95.20
17092;DHT22;8661;45.700;4.880;2023-02-28T02:03:25;0.80;95.20
17092;DHT22;8661;45.700;4.880;2023-02-28T02:05:52;0.70;95.20
17092;DHT22;8661;45.700;4.880;2023-02-28T02:08:23;0.70;95.30
17092;DHT22;8661;45.700;4.880;2023-02-28T02:10:52;0.70;95.30
17092;DHT22;8661;45.700;4.880;2023-02-28T02:13:46;0.70;95.30
17092;DHT22;8661;45.700;4.880;2023-02-28T02:16:33;0.70;95.30
17092;DHT22;8661;45.700;4.880;2023-02-28T02:19:13;0.70;95.20
17092;DHT22;8661;45.700;4.880;2023-02-28T02:21:59;0.80;95.20
17092;DHT22;8661;45.700;4.880;2023-02-28T02:24:55;0.80;95.20
17092;DHT22;8661;45.700;4.880;2023-02-28T02:27:33;0.90;95.00
17092;DHT22;8661;45.700;4.880;2023-02-28T02:30:19;0.90;95.00
17092;DHT22;8661;45.700;4.880;2023-02-28T02:33:06;0.80;95.00
17092;DHT22;8661;45.700;4.880;2023-02-28T02:35:40;0.90;95.00
17092;DHT22;8661;45.700;4.880;2023-02-28T02:38:13;1.00;94.90
17092;DHT22;8661;45.700;4.880;2023-02-28T02:40:50;1.00;94.90
17092;DHT22;8661;45.700;4.880;2023-02-28T02:43:26;1.10;95.00
17092;DHT22;8661;45.700;4.880;2023-02-28T02:45:57;1.10;94.90
17092;DHT22;8661;45.700;4.880;2023-02-28T02:48:29;1.10;94.80
17092;DHT22;8661;45.700;4.880;2023-02-28T02:51:00;1.20;94.80
17092;DHT22;8661;45.700;4.880;2023-02-28T02:53:32;1.20;94.80
17092;DHT22;8661;45.700;4.880;2023-02-28T02:56:01;1.30;94.70
17092;DHT22;8661;45.700;4.880;2023-02-28T02:58:35;1.30;94.70
17092;DHT22;8661;45.700;4.880;2023-02-28T03:01:08;1.30;94.70
17092;DHT22;8661;45.700;4.880;2023-02-28T03:03:37;1.30;94.70
17092;DHT22;8661;45.700;4.880;2023-02-28T03:06:06;1.30;94.60
17092;DHT22;8661;45.700;4.880;2023-02-28T03:08:36;1.30;94.60
17092;DHT22;8661;45.700;4.880;2023-02-28T03:11:04;1.40;94.60
17092;DHT22;8661;45.700;4.880;2023-02-28T03:14:02;1.40;94.60
17092;DHT22;8661;45.700;4.880;2023-02-28T03:16:36;1.40;94.60
17092;DHT22;8661;45.700;4.880;2023-02-28T03:19:30;1.40;94.50
17092;DHT22;8661;45.700;4.880;2023-02-28T03:22:12;1.40;94.60
17092;DHT22;8661;45.700;4.880;2023-02-28T03:24:47;1.50;94.60
17092;DHT22;8661;45.700;4.880;2023-02-28T03:27:22;1.50;94.60
17092;DHT22;8661;45.700;4.880;2023-02-28T03:29:56;1.50;94.50
17092;DHT22;8661;45.700;4.880;2023-02-28T03:32:28;1.50;94.40
17092;DHT22;8661;45.700;4.880;2023-02-28T03:35:00;1.50;94.40
17092;DHT22;8661;45.700;4.880;2023-02-28T03:37:35;1.50;94.40
17092;DHT22;8661;45.700;4.880;2023-02-28T03:40:08;1.50;94.50
17092;DHT22;8661;45.700;4.880;2023-02-28T03:42:41;1.50;94.50
17092;DHT22;8661;45.700;4.880;2023-02-28T03:45:12;1.50;94.40
17092;DHT22;8661;45.700;4.880;2023-02-28T03:47:43;1.60;94.50
17092;DHT22;8661;45.700;4.880;2023-02-28T03:50:16;1.60;94.50
17092;DHT22;8661;45.700;4.880;2023-02-28T03:52:49;1.60;94.40
17092;DHT22;8661;45.700;4.880;2023-02-28T03:55:17;1.60;94.50
17092;DHT22;8661;45.700;4.880;2023-02-28T03:57:52;1.60;94.40
17092;DHT22;8661;45.700;4.880;2023-02-28T04:00:29;1.60;94.40
17092;DHT22;8661;45.700;4.880;2023-02-28T04:02:58;1.60;94.30
17092;DHT22;8661;45.700;4.880;2023-02-28T04:05:26;1.50;94.20
17092;DHT22;8661;45.700;4.880;2023-02-28T04:08:03;1.40;94.40
17092;DHT22;8661;45.700;4.880;2023-02-28T04:10:30;1.40;94.50
17092;DHT22;8661;45.700;4.880;2023-02-28T04:12:58;1.30;94.50
17092;DHT22;8661;45.700;4.880;2023-02-28T04:15:25;1.30;94.60
17092;DHT22;8661;45.700;4.880;2023-02-28T04:17:53;1.40;94.60
17092;DHT22;8661;45.700;4.880;2023-02-28T04:20:20;1.30;94.60
17092;DHT22;8661;45.700;4.880;2023-02-28T04:22:47;1.30;94.60
17092;DHT22;8661;45.700;4.880;2023-02-28T04:25:16;1.20;95.10
17092;DHT22;8661;45.700;4.880;2023-02-28T04:27:43;1.10;94.70
17092;DHT22;8661;45.700;4.880;2023-02-28T04:30:11;1.10;94.80
17092;DHT22;8661;45.700;4.880;2023-02-28T04:32:38;1.10;94.80
17092;DHT22;8661;45.700;4.880;2023-02-28T04:35:06;1.00;94.90
17092;DHT22;8661;45.700;4.880;2023-02-28T04:37:36;1.00;95.00
17092;DHT22;8661;45.700;4.880;2023-02-28T04:40:04;1.00;94.90
17092;DHT22;8661;45.700;4.880;2023-02-28T04:42:32;1.00;95.00
17092;DHT22;8661;45.700;4.880;2023-02-28T04:45:03;1.00;95.10
17092;DHT22;8661;45.700;4.880;2023-02-28T04:47:30;1.00;95.00
17092;DHT22;8661;45.700;4.880;2023-02-28T04:49:57;0.90;95.10
17092;DHT22;8661;45.700;4.880;2023-02-28T04:52:24;0.90;95.20
17092;DHT22;8661;45.700;4.880;2023-02-28T04:54:56;0.80;95.10
17092;DHT22;8661;45.700;4.880;2023-02-28T04:57:24;0.80;95.20
17092;DHT22;8661;45.700;4.880;2023-02-28T04:59:53;0.80;95.30
17092;DHT22;8661;45.700;4.880;2023-02-28T05:02:26;0.80;95.40
17092;DHT22;8661;45.700;4.880;2023-02-28T05:04:56;0.80;95.40
17092;DHT22;8661;45.700;4.880;2023-02-28T05:07:25;0.80;95.40
17092;DHT22;8661;45.700;4.880;2023-02-28T05:09:52;0.80;95.40
17092;DHT22;8661;45.700;4.880;2023-02-28T05:12:22;0.60;95.40
17092;DHT22;8661;45.700;4.880;2023-02-28T05:14:50;0.60;95.50
17092;DHT22;8661;45.700;4.880;2023-02-28T05:17:19;0.60;95.40
17092;DHT22;8661;45.700;4.880;2023-02-28T05:19:46;0.60;95.50
17092;DHT22;8661;45.700;4.880;2023-02-28T05:22:14;0.60;95.60
17092;DHT22;8661;45.700;4.880;2023-02-28T05:24:42;0.60;95.60
17092;DHT22;8661;45.700;4.880;2023-02-28T05:27:09;0.60;95.50
17092;DHT22;8661;45.700;4.880;2023-02-28T05:29:37;0.50;95.70
17092;DHT22;8661;45.700;4.880;2023-02-28T05:32:09;0.60;95.70
17092;DHT22;8661;45.700;4.880;2023-02-28T05:34:40;0.60;95.70
17092;DHT22;8661;45.700;4.880;2023-02-28T05:37:11;0.60;95.70
17092;DHT22;8661;45.700;4.880;2023-02-28T05:39:41;0.50;95.90
17092;DHT22;8661;45.700;4.880;2023-02-28T05:42:09;0.50;95.90
17092;DHT22;8661;45.700;4.880;2023-02-28T05:44:36;0.60;95.80
17092;DHT22;8661;45.700;4.880;2023-02-28T05:47:05;0.60;95.70
17092;DHT22;8661;45.700;4.880;2023-02-28T05:49:32;0.60;95.80
17092;DHT22;8661;45.700;4.880;2023-02-28T05:52:00;0.50;95.90
17092;DHT22;8661;45.700;4.880;2023-02-28T05:54:28;0.50;95.90
17092;DHT22;8661;45.700;4.880;2023-02-28T05:56:55;0.50;96.00
17092;DHT22;8661;45.700;4.880;2023-02-28T05:59:22;0.50;96.00
17092;DHT22;8661;45.700;4.880;2023-02-28T06:01:49;0.50;95.90
17092;DHT22;8661;45.700;4.880;2023-02-28T06:04:19;0.40;96.00
17092;DHT22;8661;45.700;4.880;2023-02-28T06:06:48;0.40;96.00
17092;DHT22;8661;45.700;4.880;2023-02-28T06:09:18;0.40;96.10
17092;DHT22;8661;45.700;4.880;2023-02-28T06:11:58;0.40;96.20
17092;DHT22;8661;45.700;4.880;2023-02-28T06:14:26;0.40;96.10
17092;DHT22;8661;45.700;4.880;2023-02-28T06:16:54;0.40;96.20
17092;DHT22;8661;45.700;4.880;2023-02-28T06:19:21;0.50;96.70
17092;DHT22;8661;45.700;4.880;2023-02-28T06:21:51;0.50;96.30
17092;DHT22;8661;45.700;4.880;2023-02-28T06:24:20;0.40;96.20
17092;DHT22;8661;45.700;4.880;2023-02-28T06:26:48;0.40;96.20
17092;DHT22;8661;45.700;4.880;2023-02-28T06:29:15;0.30;96.20
17092;DHT22;8661;45.700;4.880;2023-02-28T06:31:42;0.40;96.40
17092;DHT22;8661;45.700;4.880;2023-02-28T06:34:09;0.40;96.50
17092;DHT22;8661;45.700;4.880;2023-02-28T06:36:37;0.40;96.40
17092;DHT22;8661;45.700;4.880;2023-02-28T06:39:04;0.40;96.40
17092;DHT22;8661;45.700;4.880;2023-02-28T06:41:33;0.30;96.40
17092;DHT22;8661;45.700;4.880;2023-02-28T06:44:04;0.30;96.50
17092;DHT22;8661;45.700;4.880;2023-02-28T06:46:31;0.40;96.70
17092;DHT22;8661;45.700;4.880;2023-02-28T06:48:58;0.40;96.60
17092;DHT22;8661;45.700;4.880;2023-02-28T06:51:26;0.50;96.60
17092;DHT22;8661;45.700;4.880;2023-02-28T06:53:53;0.60;96.60
17092;DHT22;8661;45.700;4.880;2023-02-28T06:56:20;0.70;96.50
17092;DHT22;8661;45.700;4.880;2023-02-28T06:58:49;0.80;96.50
17092;DHT22;8661;45.700;4.880;2023-02-28T07:01:18;0.90;96.40
17092;DHT22;8661;45.700;4.880;2023-02-28T07:03:46;1.00;96.40
17092;DHT22;8661;45.700;4.880;2023-02-28T07:06:18;1.10;96.30
17092;DHT22;8661;45.700;4.880;2023-02-28T07:08:45;1.20;96.20
17092;DHT22;8661;45.700;4.880;2023-02-28T07:11:12;1.40;96.10
17092;DHT22;8661;45.700;4.880;2023-02-28T07:13:39;1.70;95.90
17092;DHT22;8661;45.700;4.880;2023-02-28T07:16:09;1.90;95.40
17092;DHT22;8661;45.700;4.880;2023-02-28T07:18:37;2.30;95.10
17092;DHT22;8661;45.700;4.880;2023-02-28T07:21:05;2.60;94.80
17092;DHT22;8661;45.700;4.880;2023-02-28T07:23:35;3.40;94.20
17092;DHT22;8661;45.700;4.880;2023-02-28T07:26:03;4.20;93.10
17092;DHT22;8661;45.700;4.880;2023-02-28T07:28:31;4.80;91.70
17092;DHT22;8661;45.700;4.880;2023-02-28T07:31:03;5.60;90.90
17092;DHT22;8661;45.700;4.880;2023-02-28T07:33:32;6.90;88.90
17092;DHT22;8661;45.700;4.880;2023-02-28T07:36:04;7.60;84.60
17092;DHT22;8661;45.700;4.880;2023-02-28T07:38:33;7.60;83.30
17092;DHT22;8661;45.700;4.880;2023-02-28T07:41:00;7.90;82.30
17092;DHT22;8661;45.700;4.880;2023-02-28T07:43:29;8.10;81.40
17092;DHT22;8661;45.700;4.880;2023-02-28T07:46:01;8.20;80.60
17092;DHT22;8661;45.700;4.880;2023-02-28T07:48:28;8.50;79.80
17092;DHT22;8661;45.700;4.880;2023-02-28T07:50:57;8.90;79.00
17092;DHT22;8661;45.700;4.880;2023-02-28T07:53:25;9.80;76.60
17092;DHT22;8661;45.700;4.880;2023-02-28T07:55:54;10.50;74.60
17092;DHT22;8661;45.700;4.880;2023-02-28T07:58:22;11.20;72.20
17092;DHT22;8661;45.700;4.880;2023-02-28T08:00:49;11.90;70.80
17092;DHT22;8661;45.700;4.880;2023-02-28T08:03:17;12.30;68.80
17092;DHT22;8661;45.700;4.880;2023-02-28T08:05:45;12.50;67.60
17092;DHT22;8661;45.700;4.880;2023-02-28T08:08:13;12.40;66.60
17092;DHT22;8661;45.700;4.880;2023-02-28T08:10:40;11.60;67.90
17092;DHT22;8661;45.700;4.880;2023-02-28T08:13:07;11.00;69.50
17092;DHT22;8661;45.700;4.880;2023-02-28T08:15:34;10.50;70.30
17092;DHT22;8661;45.700;4.880;2023-02-28T08:18:01;10.20;72.60
17092;DHT22;8661;45.700;4.880;2023-02-28T08:20:28;9.90;72.30
17092;DHT22;8661;45.700;4.880;2023-02-28T08:22:56;9.70;72.80
17092;DHT22;8661;45.700;4.880;2023-02-28T08:25:24;9.30;74.10
17092;DHT22;8661;45.700;4.880;2023-02-28T08:27:52;9.10;74.80
17092;DHT22;8661;45.700;4.880;2023-02-28T08:30:19;9.00;74.60
17092;DHT22;8661;45.700;4.880;2023-02-28T08:32:46;9.30;75.00
17092;DHT22;8661;45.700;4.880;2023-02-28T08:35:12;9.50;74.50
17092;DHT22;8661;45.700;4.880;2023-02-28T08:37:39;9.50;73.70
17092;DHT22;8661;45.700;4.880;2023-02-28T08:40:08;9.50;74.50
17092;DHT22;8661;45.700;4.880;2023-02-28T08:42:36;9.60;73.80
17092;DHT22;8661;45.700;4.880;2023-02-28T08:45:04;9.70;73.40
17092;DHT22;8661;45.700;4.880;2023-02-28T08:47:31;9.80;74.70
17092;DHT22;8661;45.700;4.880;2023-02-28T08:49:58;10.10;73.10
17092;DHT22;8661;45.700;4.880;2023-02-28T08:52:25;10.90;72.40
17092;DHT22;8661;45.700;4.880;2023-02-28T08:54:52;11.20;69.80
17092;DHT22;8661;45.700;4.880;2023-02-28T08:57:19;11.10;69.20
17092;DHT22;8661;45.700;4.880;2023-02-28T08:59:47;10.90;70.10
17092;DHT22;8661;45.700;4.880;2023-02-28T09:02:15;10.80;70.10
17092;DHT22;8661;45.700;4.880;2023-02-28T09:04:42;10.50;70.00
17092;DHT22;8661;45.700;4.880;2023-02-28T09:07:11;10.30;70.40
17092;DHT22;8661;45.700;4.880;2023-02-28T09:09:38;10.30;70.70
17092;DHT22;8661;45.700;4.880;2023-02-28T09:12:19;10.60;70.30
17092;DHT22;8661;45.700;4.880;2023-02-28T09:14:48;10.70;69.30
17092;DHT22;8661;45.700;4.880;2023-02-28T09:17:15;10.80;69.60
17092;DHT22;8661;45.700;4.880;2023-02-28T09:19:42;10.70;69.10
17092;DHT22;8661;45.700;4.880;2023-02-28T09:22:09;10.60;69.00
17092;DHT22;8661;45.700;4.880;2023-02-28T09:24:37;10.50;69.40
17092;DHT22;8661;45.700;4.880;2023-02-28T09:27:05;10.30;69.40
17092;DHT22;8661;45.700;4.880;2023-02-28T09:29:33;10.20;69.40
17092;DHT22;8661;45.700;4.880;2023-02-28T09:32:02;10.00;69.90
17092;DHT22;8661;45.700;4.880;2023-02-28T09:34:31;9.90;70.40
17092;DHT22;8661;45.700;4.880;2023-02-28T09:36:58;9.80;70.60
17092;DHT22;8661;45.700;4.880;2023-02-28T09:39:25;10.00;70.40
17092;DHT22;8661;45.700;4.880;2023-02-28T09:41:54;10.10;70.90
17092;DHT22;8661;45.700;4.880;2023-02-28T09:44:27;10.40;70.60
17092;DHT22;8661;45.700;4.880;2023-02-28T09:46:57;10.70;70.10
17092;DHT22;8661;45.700;4.880;2023-02-28T09:49:33;10.70;69.40
17092;DHT22;8661;45.700;4.880;2023-02-28T09:52:03;10.60;69.10
17092;DHT22;8661;45.700;4.880;2023-02-28T09:54:32;10.90;69.20
17092;DHT22;8661;45.700;4.880;2023-02-28T09:57:01;10.80;68.80
17092;DHT22;8661;45.700;4.880;2023-02-28T09:59:57;10.70;69.60
17092;DHT22;8661;45.700;4.880;2023-02-28T10:02:41;10.70;68.90
17092;DHT22;8661;45.700;4.880;2023-02-28T10:05:14;10.60;69.60
17092;DHT22;8661;45.700;4.880;2023-02-28T10:07:54;10.60;69.70
17092;DHT22;8661;45.700;4.880;2023-02-28T10:10:26;10.60;69.20
17092;DHT22;8661;45.700;4.880;2023-02-28T10:12:56;10.50;69.10
17092;DHT22;8661;45.700;4.880;2023-02-28T10:15:28;10.40;69.80
17092;DHT22;8661;45.700;4.880;2023-02-28T10:17:59;10.30;69.90
17092;DHT22;8661;45.700;4.880;2023-02-28T10:20:30;10.40;70.50
17092;DHT22;8661;45.700;4.880;2023-02-28T10:23:03;10.60;69.40
17092;DHT22;8661;45.700;4.880;2023-02-28T10:25:34;10.50;69.50
17092;DHT22;8661;45.700;4.880;2023-02-28T10:28:08;10.50;70.00
17092;DHT22;8661;45.700;4.880;2023-02-28T10:30:40;10.80;69.60
17092;DHT22;8661;45.700;4.880;2023-02-28T10:33:17;10.90;68.80
17092;DHT22;8661;45.700;4.880;2023-02-28T10:35:47;11.10;69.30
17092;DHT22;8661;45.700;4.880;2023-02-28T10:38:19;11.60;68.70
17092;DHT22;8661;45.700;4.880;2023-02-28T10:40:47;11.70;67.20
17092;DHT22;8661;45.700;4.880;2023-02-28T10:43:22;11.90;67.50
17092;DHT22;8661;45.700;4.880;2023-02-28T10:45:56;11.80;66.30
17092;DHT22;8661;45.700;4.880;2023-02-28T10:48:33;12.20;66.30
17092;DHT22;8661;45.700;4.880;2023-02-28T10:51:02;12.20;66.10
17092;DHT22;8661;45.700;4.880;2023-02-28T10:53:32;12.50;66.70
17092;DHT22;8661;45.700;4.880;2023-02-28T10:56:02;12.50;65.40
17092;DHT22;8661;45.700;4.880;2023-02-28T10:58:31;12.70;65.10
17092;DHT22;8661;45.700;4.880;2023-02-28T11:00:59;13.10;64.10
17092;DHT22;8661;45.700;4.880;2023-02-28T11:03:31;13.20;64.30
17092;DHT22;8661;45.700;4.880;2023-02-28T11:06:03;13.20;63.70
17092;DHT22;8661;45.700;4.880;2023-02-28T11:08:32;12.80;63.70
17092;DHT22;8661;45.700;4.880;2023-02-28T11:11:04;12.60;64.10
17092;DHT22;8661;45.700;4.880;2023-02-28T11:13:34;12.40;63.30
17092;DHT22;8661;45.700;4.880;2023-02-28T11:16:03;12.20;64.60
17092;DHT22;8661;45.700;4.880;2023-02-28T11:18:36;12.00;65.20
17092;DHT22;8661;45.700;4.880;2023-02-28T11:21:05;12.10;65.10
17092;DHT22;8661;45.700;4.880;2023-02-28T11:23:36;12.10;64.70
17092;DHT22;8661;45.700;4.880;2023-02-28T11:26:06;12.30;65.30
17092;DHT22;8661;45.700;4.880;2023-02-28T11:28:37;12.60;65.10
17092;DHT22;8661;45.700;4.880;2023-02-28T11:31:16;12.90;63.80
17092;DHT22;8661;45.700;4.880;2023-02-28T11:33:46;13.20;64.30
17092;DHT22;8661;45.700;4.880;2023-02-28T11:36:18;13.30;63.90
17092;DHT22;8661;45.700;4.880;2023-02-28T11:38:48;13.30;63.50
17092;DHT22;8661;45.700;4.880;2023-02-28T11:41:38;13.30;63.50
17092;DHT22;8661;45.700;4.880;2023-02-28T11:44:23;13.60;62.30
17092;DHT22;8661;45.700;4.880;2023-02-28T11:46:57;13.90;62.10
17092;DHT22;8661;45.700;4.880;2023-02-28T11:49:37;14.20;62.00
17092;DHT22;8661;45.700;4.880;2023-02-28T11:52:16;14.60;61.20
17092;DHT22;8661;45.700;4.880;2023-02-28T11:55:14;14.90;60.60
17092;DHT22;8661;45.700;4.880;2023-02-28T12:00:55;15.60;58.70
17092;DHT22;8661;45.700;4.880;2023-02-28T12:03:33;15.90;58.30
17092;DHT22;8661;45.700;4.880;2023-02-28T12:06:13;16.00;58.70
17092;DHT22;8661;45.700;4.880;2023-02-28T12:08:53;16.00;58.00
17092;DHT22;8661;45.700;4.880;2023-02-28T12:11:32;15.90;58.10
17092;DHT22;8661;45.700;4.880;2023-02-28T12:14:18;15.90;58.00
17092;DHT22;8661;45.700;4.880;2023-02-28T12:16:57;16.20;58.30
17092;DHT22;8661;45.700;4.880;2023-02-28T12:19:33;16.60;57.50
17092;DHT22;8661;45.700;4.880;2023-02-28T12:22:29;16.70;57.60
17092;DHT22;8661;45.700;4.880;2023-02-28T12:27:55;16.90;56.40
17092;DHT22;8661;45.700;4.880;2023-02-28T12:30:25;17.30;56.60
17092;DHT22;8661;45.700;4.880;2023-02-28T12:32:55;17.00;56.60
17092;DHT22;8661;45.700;4.880;2023-02-28T12:35:26;16.70;57.00
17092;DHT22;8661;45.700;4.880;2023-02-28T12:38:03;16.30;57.40
17092;DHT22;8661;45.700;4.880;2023-02-28T12:40:39;15.60;57.80
17092;DHT22;8661;45.700;4.880;2023-02-28T12:43:12;15.20;58.60
17092;DHT22;8661;45.700;4.880;2023-02-28T12:45:43;15.00;59.20
17092;DHT22;8661;45.700;4.880;2023-02-28T12:48:14;14.40;59.80
17092;DHT22;8661;45.700;4.880;2023-02-28T12:50:42;14.50;60.50
17092;DHT22;8661;45.700;4.880;2023-02-28T12:53:12;14.70;60.00
17092;DHT22;8661;45.700;4.880;2023-02-28T12:55:42;14.70;60.20
17092;DHT22;8661;45.700;4.880;2023-02-28T12:58:19;14.50;60.50
17092;DHT22;8661;45.700;4.880;2023-02-28T13:01:12;14.80;60.00
17092;DHT22;8661;45.700;4.880;2023-02-28T13:03:57;15.00;60.00
17092;DHT22;8661;45.700;4.880;2023-02-28T13:06:45;15.40;58.80
17092;DHT22;8661;45.700;4.880;2023-02-28T13:09:19;15.70;58.50
17092;DHT22;8661;45.700;4.880;2023-02-28T13:11:48;16.50;58.70
17092;DHT22;8661;45.700;4.880;2023-02-28T13:14:22;17.30;57.60
17092;DHT22;8661;45.700;4.880;2023-02-28T13:16:58;17.80;56.20
17092;DHT22;8661;45.700;4.880;2023-02-28T13:19:27;17.70;55.30
17092;DHT22;8661;45.700;4.880;2023-02-28T13:21:55;17.90;55.40
17092;DHT22;8661;45.700;4.880;2023-02-28T13:24:43;18.30;55.10
17092;DHT22;8661;45.700;4.880;2023-02-28T13:27:24;18.50;54.50
17092;DHT22;8661;45.700;4.880;2023-02-28T13:30:00;18.50;54.90
17092;DHT22;8661;45.700;4.880;2023-02-28T13:32:36;19.30;54.40
17092;DHT22;8661;45.700;4.880;2023-02-28T13:38:15;19.00;53.70
17092;DHT22;8661;45.700;4.880;2023-02-28T13:40:42;19.10;52.70
17092;DHT22;8661;45.700;4.880;2023-02-28T13:43:09;18.70;53.60
17092;DHT22;8661;45.700;4.880;2023-02-28T13:45:37;18.10;54.20
17092;DHT22;8661;45.700;4.880;2023-02-28T13:48:16;18.10;55.00
17092;DHT22;8661;45.700;4.880;2023-02-28T13:50:44;18.00;54.70
17092;DHT22;8661;45.700;4.880;2023-02-28T13:56:24;18.40;53.20
17092;DHT22;8661;45.700;4.880;2023-02-28T13:58:55;18.40;54.90
17092;DHT22;8661;45.700;4.880;2023-02-28T14:01:53;18.00;54.80
17092;DHT22;8661;45.700;4.880;2023-02-28T14:07:32;16.80;55.60
17092;DHT22;8661;45.700;4.880;2023-02-28T14:10:02;16.00;56.40
17092;DHT22;8661;45.700;4.880;2023-02-28T14:12:53;15.80;57.70
17092;DHT22;8661;45.700;4.880;2023-02-28T14:15:49;15.60;57.50
17092;DHT22;8661;45.700;4.880;2023-02-28T14:18:25;15.30;58.30
17092;DHT22;8661;45.700;4.880;2023-02-28T14:20:58;15.00;58.90
17092;DHT22;8661;45.700;4.880;2023-02-28T14:23:36;14.70;59.40
17092;DHT22;8661;45.700;4.880;2023-02-28T14:26:13;14.50;59.30
17092;DHT22;8661;45.700;4.880;2023-02-28T14:28:55;14.20;59.90
17092;DHT22;8661;45.700;4.880;2023-02-28T14:31:29;14.00;60.00
17092;DHT22;8661;45.700;4.880;2023-02-28T14:34:16;13.60;61.10
17092;DHT22;8661;45.700;4.880;2023-02-28T14:36:45;13.10;62.50
17092;DHT22;8661;45.700;4.880;2023-02-28T14:39:13;12.70;63.00
17092;DHT22;8661;45.700;4.880;2023-02-28T14:41:42;12.20;64.00
17092;DHT22;8661;45.700;4.880;2023-02-28T14:44:15;11.80;65.00
17092;DHT22;8661;45.700;4.880;2023-02-28T14:46:45;11.50;65.60
17092;DHT22;8661;45.700;4.880;2023-02-28T14:49:19;11.40;66.80
17092;DHT22;8661;45.700;4.880;2023-02-28T14:51:49;11.30;66.70
17092;DHT22;8661;45.700;4.880;2023-02-28T14:54:20;10.80;66.90
17092;DHT22;8661;45.700;4.880;2023-02-28T14:56:50;10.60;68.10
17092;DHT22;8661;45.700;4.880;2023-02-28T14:59:25;10.40;69.20
17092;DHT22;8661;45.700;4.880;2023-02-28T15:01:52;10.20;69.70
17092;DHT22;8661;45.700;4.880;2023-02-28T15:04:25;9.90;70.40
17092;DHT22;8661;45.700;4.880;2023-02-28T15:07:11;9.90;70.60
17092;DHT22;8661;45.700;4.880;2023-02-28T15:09:37;9.70;71.60
17092;DHT22;8661;45.700;4.880;2023-02-28T15:12:05;9.60;71.40
17092;DHT22;8661;45.700;4.880;2023-02-28T15:14:32;9.60;71.40
17092;DHT22;8661;45.700;4.880;2023-02-28T15:17:05;9.40;71.80
17092;DHT22;8661;45.700;4.880;2023-02-28T15:19:37;9.20;72.30
17092;DHT22;8661;45.700;4.880;2023-02-28T15:22:10;9.00;72.60
17092;DHT22;8661;45.700;4.880;2023-02-28T15:24:41;9.00;72.60
17092;DHT22;8661;45.700;4.880;2023-02-28T15:27:13;8.80;72.90
17092;DHT22;8661;45.700;4.880;2023-02-28T15:29:44;8.80;73.70
17092;DHT22;8661;45.700;4.880;2023-02-28T15:32:24;8.90;73.80
17092;DHT22;8661;45.700;4.880;2023-02-28T15:34:55;8.90;73.60
17092;DHT22;8661;45.700;4.880;2023-02-28T15:37:37;8.90;73.60
17092;DHT22;8661;45.700;4.880;2023-02-28T15:40:11;8.80;74.40
17092;DHT22;8661;45.700;4.880;2023-02-28T15:42:39;8.60;73.90
17092;DHT22;8661;45.700;4.880;2023-02-28T15:45:27;8.40;74.20
17092;DHT22;8661;45.700;4.880;2023-02-28T15:47:54;8.30;74.70
17092;DHT22;8661;45.700;4.880;2023-02-28T15:50:23;8.20;75.20
17092;DHT22;8661;45.700;4.880;2023-02-28T15:52:50;8.00;75.40
17092;DHT22;8661;45.700;4.880;2023-02-28T15:55:20;7.90;75.80
17092;DHT22;8661;45.700;4.880;2023-02-28T15:57:50;7.70;76.20
17092;DHT22;8661;45.700;4.880;2023-02-28T16:00:20;7.70;76.60
17092;DHT22;8661;45.700;4.880;2023-02-28T16:02:47;7.80;77.00
17092;DHT22;8661;45.700;4.880;2023-02-28T16:05:25;7.70;77.00
17092;DHT22;8661;45.700;4.880;2023-02-28T16:07:57;7.70;77.00
17092;DHT22;8661;45.700;4.880;2023-02-28T16:10:25;7.50;77.30
17092;DHT22;8661;45.700;4.880;2023-02-28T16:12:55;7.40;77.90
17092;DHT22;8661;45.700;4.880;2023-02-28T16:15:24;7.30;78.00
17092;DHT22;8661;45.700;4.880;2023-02-28T16:17:52;7.30;78.80
17092;DHT22;8661;45.700;4.880;2023-02-28T16:20:21;7.20;78.90
17092;DHT22;8661;45.700;4.880;2023-02-28T16:22:50;7.20;79.20
17092;DHT22;8661;45.700;4.880;2023-02-28T16:25:19;7.10;79.60
17092;DHT22;8661;45.700;4.880;2023-02-28T16:27:48;7.10;79.80
17092;DHT22;8661;45.700;4.880;2023-02-28T16:30:19;7.00;79.40
17092;DHT22;8661;45.700;4.880;2023-02-28T16:32:46;7.00;79.50
17092;DHT22;8661;45.700;4.880;2023-02-28T16:35:14;6.90;79.80
17092;DHT22;8661;45.700;4.880;2023-02-28T16:37:41;6.70;79.90